Time;durP1;ratioP1;P1;durP2;ratioP2;P2;SDS_P1;SDS_P2;PMS_P1;PMS_P2;Temp;Humidity;BMP_temperature;BMP_pressure;BME280_temperature;BME280_humidity;BME280_pressure;Samples;Min_cycle;Max_cycle;Signal;HPM_P1;HPM_P2
2023/09/24 00:00:57;;;;;;;3.80;1.70;;;15.90;1.00;;;;;;6190631;23;20658;-44
2023/09/24 00:03:23;;;;;;;3.40;1.93;;;15.80;1.00;;;;;;6190601;23;20542;-44
2023/09/24 00:05:50;;;;;;;2.87;1.70;;;15.80;1.00;;;;;;6192196;23;20654;-43
2023/09/24 00:08:17;;;;;;;2.60;1.80;;;15.80;1.00;;;;;;6215882;23;20777;-43
2023/09/24 00:10:47;;;;;;;4.23;2.00;;;15.80;1.00;;;;;;6216577;23;20431;-44
2023/09/24 00:13:13;;;;;;;2.37;1.70;;;15.70;1.00;;;;;;6216343;23;20639;-44
2023/09/24 00:15:39;;;;;;;3.57;1.87;;;15.70;1.00;;;;;;6216738;23;20459;-44
2023/09/24 00:18:04;;;;;;;2.03;1.60;;;15.70;1.00;;;;;;6216400;23;20168;-44
2023/09/24 00:20:30;;;;;;;2.43;1.60;;;15.70;1.00;;;;;;6217108;23;20423;-44
2023/09/24 00:22:57;;;;;;;2.20;1.60;;;15.70;1.00;;;;;;6216288;23;20161;-44
2023/09/24 00:25:23;;;;;;;2.80;1.90;;;15.60;1.00;;;;;;6217321;23;20127;-44
2023/09/24 00:27:49;;;;;;;4.83;2.50;;;15.60;1.00;;;;;;6191359;23;20628;-44
2023/09/24 00:30:14;;;;;;;3.33;2.03;;;15.60;1.00;;;;;;6217955;23;20456;-42
2023/09/24 00:32:40;;;;;;;4.10;1.97;;;15.60;1.00;;;;;;6218192;23;20478;-42
2023/09/24 00:35:06;;;;;;;2.67;1.77;;;15.50;1.00;;;;;;6217307;23;20557;-43
2023/09/24 00:37:34;;;;;;;2.33;1.83;;;15.50;1.00;;;;;;6216484;23;20219;-43
2023/09/24 00:40:00;;;;;;;4.23;2.00;;;15.50;1.00;;;;;;6215330;23;20675;-42
2023/09/24 00:42:31;;;;;;;2.80;1.83;;;15.50;1.00;;;;;;6215023;23;20973;-43
2023/09/24 00:44:58;;;;;;;2.30;1.37;;;15.40;1.00;;;;;;6189498;23;20736;-42
2023/09/24 00:47:24;;;;;;;3.13;1.97;;;15.40;1.00;;;;;;6216085;23;20507;-42
2023/09/24 00:49:50;;;;;;;1.80;1.47;;;15.40;1.00;;;;;;6214745;23;20682;-42
2023/09/24 00:52:15;;;;;;;2.40;1.70;;;15.40;1.00;;;;;;6215216;23;20145;-46
2023/09/24 00:54:42;;;;;;;3.20;2.50;;;15.30;1.00;;;;;;6215844;23;20899;-42
2023/09/24 01:02:55;;;;;;;4.43;2.20;;;15.30;1.00;;;;;;6215410;23;20448;-43
2023/09/24 01:05:21;;;;;;;2.00;1.50;;;15.20;1.00;;;;;;6217522;23;20142;-42
2023/09/24 01:07:46;;;;;;;3.57;1.70;;;15.20;1.00;;;;;;6217694;23;20387;-42
2023/09/24 01:10:13;;;;;;;2.50;1.70;;;15.20;1.00;;;;;;6216618;23;20196;-41
2023/09/24 01:12:39;;;;;;;3.77;1.50;;;15.20;1.00;;;;;;6191012;23;20219;-41
2023/09/24 01:15:14;;;;;;;2.43;1.67;;;15.20;1.00;;;;;;6216586;23;20530;-43
2023/09/24 01:17:40;;;;;;;3.90;1.77;;;15.10;1.00;;;;;;6216849;23;20357;-43
2023/09/24 01:20:12;;;;;;;2.23;1.83;;;15.10;1.00;;;;;;6217325;23;20404;-43
2023/09/24 01:22:39;;;;;;;1.87;1.60;;;15.10;1.00;;;;;;6214604;23;20154;-43
2023/09/24 01:25:06;;;;;;;2.27;1.90;;;15.10;1.00;;;;;;6216647;23;20396;-43
2023/09/24 01:27:36;;;;;;;2.93;1.70;;;15.10;1.00;;;;;;6190419;23;20389;-42
2023/09/24 01:30:05;;;;;;;2.30;2.03;;;15.00;1.00;;;;;;6216737;23;20531;-42
2023/09/24 01:32:31;;;;;;;2.30;1.90;;;15.00;1.00;;;;;;6216942;23;20357;-42
2023/09/24 01:34:56;;;;;;;3.00;1.77;;;15.00;1.00;;;;;;6190674;23;20810;-43
2023/09/24 01:37:22;;;;;;;4.80;1.80;;;15.00;1.00;;;;;;6215742;23;20383;-42
2023/09/24 01:39:50;;;;;;;3.60;1.67;;;14.90;1.00;;;;;;6216964;23;20288;-42
2023/09/24 01:42:15;;;;;;;2.50;2.10;;;15.00;1.00;;;;;;6216521;23;20184;-42
2023/09/24 01:44:42;;;;;;;2.03;1.40;;;14.90;1.00;;;;;;6216837;23;20365;-43
2023/09/24 01:47:08;;;;;;;3.33;2.30;;;14.90;1.00;;;;;;6215213;23;20204;-42
2023/09/24 01:49:33;;;;;;;3.50;2.00;;;14.90;1.00;;;;;;6216547;23;20421;-42
2023/09/24 01:51:59;;;;;;;3.00;2.27;;;14.90;5.90;;;;;;6216426;23;20511;-42
2023/09/24 01:54:25;;;;;;;2.13;1.50;;;14.90;1.00;;;;;;6216364;23;20471;-42
2023/09/24 02:03:35;;;;;;;3.73;2.17;;;14.80;1.00;;;;;;6213633;23;20804;-42
2023/09/24 02:06:02;;;;;;;2.90;1.60;;;14.80;1.00;;;;;;6215924;23;20836;-42
2023/09/24 02:08:29;;;;;;;2.60;1.70;;;14.80;1.60;;;;;;6215017;23;20468;-43
2023/09/24 02:10:55;;;;;;;3.57;2.67;;;14.80;3.90;;;;;;6213820;23;20433;-42
2023/09/24 02:13:21;;;;;;;2.00;1.50;;;14.70;1.00;;;;;;6213743;23;20377;-42
2023/09/24 02:15:48;;;;;;;1.97;1.50;;;14.70;1.00;;;;;;6213840;23;20689;-42
2023/09/24 02:18:13;;;;;;;2.53;1.63;;;14.70;11.80;;;;;;6212902;23;20130;-42
2023/09/24 02:20:46;;;;;;;3.33;2.17;;;14.70;9.10;;;;;;6214804;23;20388;-42
2023/09/24 02:23:12;;;;;;;2.30;1.70;;;14.70;16.70;;;;;;6214968;23;20431;-42
2023/09/24 02:25:38;;;;;;;1.70;1.50;;;14.70;42.30;;;;;;6216319;23;20447;-43
2023/09/24 02:28:04;;;;;;;2.47;1.80;;;14.70;1.00;;;;;;6216224;23;20153;-43
2023/09/24 02:30:31;;;;;;;3.07;2.50;;;14.80;99.90;;;;;;6214765;23;20158;-42
2023/09/24 02:32:58;;;;;;;2.47;2.10;;;14.80;1.00;;;;;;6214361;23;20361;-43
2023/09/24 02:35:25;;;;;;;2.70;2.20;;;14.70;99.90;;;;;;6215753;23;20797;-43
2023/09/24 02:37:51;;;;;;;3.33;2.60;;;14.70;99.90;;;;;;6215112;23;20472;-43
2023/09/24 02:40:23;;;;;;;2.37;1.70;;;14.70;95.50;;;;;;6216005;23;20842;-44
2023/09/24 02:42:52;;;;;;;2.90;1.77;;;14.60;80.40;;;;;;6214984;23;20381;-43
2023/09/24 02:45:18;;;;;;;4.40;2.30;;;14.60;55.00;;;;;;6216140;23;20455;-43
2023/09/24 02:47:45;;;;;;;3.17;1.23;;;14.60;47.70;;;;;;6217230;23;20777;-43
2023/09/24 02:50:14;;;;;;;2.20;1.70;;;14.50;63.70;;;;;;6216900;23;20421;-43
2023/09/24 02:52:44;;;;;;;2.77;2.10;;;14.50;90.80;;;;;;6216001;23;20384;-42
2023/09/24 02:55:12;;;;;;;3.77;1.90;;;14.50;92.10;;;;;;6216191;23;20404;-43
2023/09/24 02:57:38;;;;;;;3.90;1.80;;;14.40;95.30;;;;;;6215744;23;20457;-43
2023/09/24 03:00:26;;;;;;;1.73;1.57;;;14.40;78.60;;;;;;6215506;23;20446;-43
2023/09/24 03:02:56;;;;;;;4.33;2.00;;;14.40;70.90;;;;;;6216534;23;20394;-43
2023/09/24 03:05:24;;;;;;;2.50;1.87;;;14.40;59.60;;;;;;6189021;23;20532;-43
2023/09/24 03:07:53;;;;;;;3.03;2.27;;;14.40;47.30;;;;;;6216762;23;20427;-43
2023/09/24 03:10:20;;;;;;;5.63;1.90;;;14.40;36.80;;;;;;6216150;23;20487;-43
2023/09/24 03:12:47;;;;;;;2.40;1.70;;;14.30;26.60;;;;;;6190000;23;20847;-43
2023/09/24 03:15:13;;;;;;;2.67;1.90;;;14.30;33.50;;;;;;6215800;23;20358;-43
2023/09/24 03:17:39;;;;;;;2.47;1.80;;;14.30;40.10;;;;;;6216154;23;20487;-43
2023/09/24 03:20:18;;;;;;;5.00;1.70;;;14.30;43.90;;;;;;6215982;23;20676;-42
2023/09/24 03:22:49;;;;;;;3.90;1.87;;;14.30;53.00;;;;;;6215949;23;20438;-43
2023/09/24 03:25:20;;;;;;;4.00;2.33;;;14.30;44.50;;;;;;6216280;23;20654;-43
2023/09/24 03:27:50;;;;;;;2.73;1.90;;;14.20;39.70;;;;;;6215418;23;20397;-43
2023/09/24 03:30:17;;;;;;;2.23;1.80;;;14.20;48.70;;;;;;6213648;23;20408;-42
2023/09/24 03:32:47;;;;;;;3.40;2.00;;;14.20;84.90;;;;;;6214064;23;20635;-42
2023/09/24 03:35:13;;;;;;;3.60;2.13;;;14.20;99.90;;;;;;6189314;23;20385;-42
2023/09/24 03:37:40;;;;;;;2.00;1.70;;;14.20;99.90;;;;;;6215893;23;20438;-43
2023/09/24 03:40:10;;;;;;;3.23;1.67;;;14.20;99.90;;;;;;6216835;23;20676;-45
2023/09/24 03:42:39;;;;;;;3.10;2.00;;;14.20;99.90;;;;;;6217168;23;20452;-44
2023/09/24 03:45:07;;;;;;;3.50;1.80;;;14.10;99.90;;;;;;6217492;23;20384;-43
2023/09/24 03:47:33;;;;;;;2.10;1.77;;;14.10;99.20;;;;;;6219193;23;20418;-45
2023/09/24 03:49:58;;;;;;;2.77;2.03;;;14.10;98.60;;;;;;6218752;23;20427;-45
2023/09/24 03:52:24;;;;;;;3.97;2.07;;;14.10;92.30;;;;;;6217309;23;20177;-43
2023/09/24 03:54:51;;;;;;;4.50;1.90;;;14.10;86.10;;;;;;6217861;23;20150;-43
2023/09/24 03:57:17;;;;;;;2.40;1.80;;;14.10;92.70;;;;;;6217853;23;20126;-43
2023/09/24 03:59:43;;;;;;;2.50;1.93;;;14.00;95.70;;;;;;6218220;23;20435;-43
2023/09/24 04:02:09;;;;;;;3.37;1.80;;;14.00;91.80;;;;;;6218378;23;20185;-43
2023/09/24 04:04:36;;;;;;;2.17;1.73;;;14.00;92.50;;;;;;6190444;23;20436;-44
2023/09/24 04:07:03;;;;;;;2.67;2.00;;;14.00;89.00;;;;;;6218230;23;20158;-44
2023/09/24 04:09:32;;;;;;;2.17;1.70;;;14.00;99.90;;;;;;6216996;23;20443;-43
2023/09/24 04:12:02;;;;;;;3.70;1.70;;;13.90;99.90;;;;;;6216431;23;20408;-43
2023/09/24 04:14:28;;;;;;;2.83;1.80;;;13.90;99.90;;;;;;6218242;23;20388;-42
2023/09/24 04:16:57;;;;;;;4.07;2.00;;;13.90;99.90;;;;;;6217823;23;20412;-43
2023/09/24 04:19:26;;;;;;;3.10;1.73;;;13.90;99.90;;;;;;6218128;23;20208;-43
2023/09/24 04:21:52;;;;;;;2.97;1.77;;;13.90;99.90;;;;;;6218273;23;20424;-43
2023/09/24 04:24:18;;;;;;;1.90;1.73;;;13.90;99.90;;;;;;6217476;23;20445;-43
2023/09/24 04:26:45;;;;;;;2.00;1.60;;;13.90;99.90;;;;;;6192079;23;20381;-44
2023/09/24 04:29:11;;;;;;;2.70;1.70;;;13.90;99.90;;;;;;6217136;23;20674;-45
2023/09/24 04:31:37;;;;;;;2.80;2.13;;;13.90;99.90;;;;;;6217824;23;20388;-43
2023/09/24 04:34:03;;;;;;;3.40;1.83;;;13.90;99.90;;;;;;6216699;23;20182;-43
2023/09/24 04:36:29;;;;;;;2.90;1.60;;;13.80;99.90;;;;;;6189246;23;20543;-43
2023/09/24 04:38:55;;;;;;;2.90;2.00;;;13.80;99.90;;;;;;6215475;23;20427;-43
2023/09/24 04:41:20;;;;;;;3.43;1.90;;;13.80;99.90;;;;;;6215131;23;20420;-43
2023/09/24 04:43:47;;;;;;;3.30;2.10;;;13.80;99.90;;;;;;6215366;23;20381;-43
2023/09/24 04:46:14;;;;;;;3.77;2.23;;;13.80;99.90;;;;;;6216426;23;20165;-43
2023/09/24 04:48:39;;;;;;;2.23;2.00;;;13.80;99.90;;;;;;6216429;23;20392;-43
2023/09/24 04:51:05;;;;;;;3.13;2.07;;;13.80;99.90;;;;;;6217063;23;20420;-43
2023/09/24 04:53:31;;;;;;;2.20;1.87;;;13.80;99.90;;;;;;6217767;23;20146;-43
2023/09/24 04:55:57;;;;;;;2.57;2.03;;;13.80;99.90;;;;;;6217971;23;20245;-43
2023/09/24 04:58:23;;;;;;;2.30;1.93;;;13.80;99.90;;;;;;6217389;23;20572;-43
2023/09/24 05:00:50;;;;;;;5.20;1.70;;;13.70;99.90;;;;;;6217102;23;20459;-43
2023/09/24 05:03:16;;;;;;;2.30;2.10;;;13.70;99.90;;;;;;6217685;23;20365;-43
2023/09/24 05:05:44;;;;;;;2.23;2.03;;;13.70;99.90;;;;;;6216428;23;20439;-43
2023/09/24 05:08:10;;;;;;;3.77;2.03;;;13.70;99.90;;;;;;6217515;23;20683;-42
2023/09/24 05:10:39;;;;;;;3.83;1.80;;;13.70;99.90;;;;;;6217416;23;20502;-43
2023/09/24 05:13:05;;;;;;;6.43;2.30;;;13.70;95.40;;;;;;6217641;23;20160;-43
2023/09/24 05:15:31;;;;;;;2.87;1.90;;;13.70;93.80;;;;;;6216875;23;20635;-43
2023/09/24 05:17:56;;;;;;;2.53;1.90;;;13.70;75.30;;;;;;6215504;23;20130;-43
2023/09/24 05:20:22;;;;;;;2.73;1.80;;;13.70;59.40;;;;;;6216315;23;20356;-43
2023/09/24 05:22:48;;;;;;;2.60;1.90;;;13.70;70.70;;;;;;6215783;23;20217;-43
2023/09/24 05:25:14;;;;;;;2.40;1.93;;;13.70;56.70;;;;;;6217050;23;20169;-44
2023/09/24 05:27:40;;;;;;;3.30;2.10;;;13.70;31.00;;;;;;6216313;23;20213;-43
2023/09/24 05:30:07;;;;;;;2.53;1.80;;;13.70;24.50;;;;;;6216357;23;20166;-43
2023/09/24 05:32:33;;;;;;;2.40;1.50;;;13.70;15.30;;;;;;6217831;23;20799;-42
2023/09/24 05:34:59;;;;;;;3.00;1.90;;;13.80;7.70;;;;;;6190640;23;20420;-43
2023/09/24 05:37:25;;;;;;;3.00;1.60;;;13.80;1.00;;;;;;6217095;23;20784;-43
2023/09/24 05:39:51;;;;;;;2.37;1.60;;;13.80;1.00;;;;;;6190843;23;20161;-43
2023/09/24 05:42:17;;;;;;;2.50;2.10;;;13.80;1.00;;;;;;6216865;23;20369;-43
2023/09/24 05:44:43;;;;;;;2.70;2.17;;;13.90;1.00;;;;;;6217091;23;20231;-43
2023/09/24 05:47:09;;;;;;;3.30;2.30;;;13.90;1.00;;;;;;6217533;23;20685;-42
2023/09/24 05:49:35;;;;;;;2.10;1.73;;;14.00;1.00;;;;;;6216770;23;20497;-43
2023/09/24 05:52:00;;;;;;;2.07;1.60;;;14.00;1.00;;;;;;6216887;23;20150;-43
2023/09/24 05:54:26;;;;;;;3.30;1.97;;;14.10;1.00;;;;;;6215869;23;20814;-43
2023/09/24 05:56:52;;;;;;;2.77;1.90;;;14.20;1.00;;;;;;6216308;23;20188;-43
2023/09/24 05:59:21;;;;;;;3.07;2.07;;;14.30;1.00;;;;;;6217098;23;20165;-43
2023/09/24 06:01:46;;;;;;;2.20;2.00;;;14.40;1.00;;;;;;6217085;23;20389;-43
2023/09/24 06:04:12;;;;;;;2.50;2.10;;;14.50;1.00;;;;;;6215688;23;20851;-42
2023/09/24 06:06:39;;;;;;;2.70;2.00;;;14.70;1.00;;;;;;6216053;23;20276;-43
2023/09/24 06:09:09;;;;;;;2.77;2.10;;;14.90;1.00;;;;;;6215009;23;20200;-43
2023/09/24 06:11:37;;;;;;;2.50;1.93;;;15.10;99.90;;;;;;6216153;23;20701;-42
2023/09/24 06:14:08;;;;;;;3.27;1.80;;;15.30;99.90;;;;;;6215724;23;20380;-43
2023/09/24 06:16:35;;;;;;;3.70;2.30;;;15.60;99.90;;;;;;6214827;23;20373;-42
2023/09/24 06:19:02;;;;;;;3.03;2.00;;;15.80;99.90;;;;;;6189000;23;20381;-43
2023/09/24 06:21:27;;;;;;;2.33;1.93;;;16.10;99.90;;;;;;6214602;23;20354;-42
2023/09/24 06:23:54;;;;;;;2.53;1.80;;;16.40;99.90;;;;;;6214708;23;20367;-43
2023/09/24 06:26:20;;;;;;;3.13;1.90;;;16.60;99.90;;;;;;6214928;23;20269;-43
2023/09/24 06:28:46;;;;;;;3.17;1.60;;;16.80;99.90;;;;;;6215569;23;20396;-43
2023/09/24 06:31:12;;;;;;;2.30;1.93;;;16.90;60.30;;;;;;6215046;23;20436;-42
2023/09/24 06:33:38;;;;;;;3.00;1.90;;;17.00;42.00;;;;;;6216121;23;20423;-43
2023/09/24 06:36:04;;;;;;;2.40;1.50;;;17.10;29.90;;;;;;6215859;23;20362;-43
2023/09/24 06:38:32;;;;;;;1.87;1.67;;;17.10;23.40;;;;;;6214429;23;20391;-43
2023/09/24 06:41:04;;;;;;;3.47;1.70;;;17.10;22.60;;;;;;6214365;23;20721;-43
2023/09/24 06:43:30;;;;;;;2.50;2.03;;;17.20;18.80;;;;;;6213547;23;20392;-43
2023/09/24 06:45:56;;;;;;;2.03;1.80;;;17.30;19.90;;;;;;6213711;23;20473;-43
2023/09/24 06:48:23;;;;;;;2.53;1.80;;;17.40;20.00;;;;;;6213845;23;20487;-43
2023/09/24 06:50:49;;;;;;;2.17;1.90;;;17.50;24.00;;;;;;6212490;23;20871;-44
2023/09/24 06:53:15;;;;;;;3.50;2.00;;;17.60;25.90;;;;;;6212448;23;20385;-43
2023/09/24 06:55:41;;;;;;;2.90;1.63;;;17.80;18.60;;;;;;6213358;23;20720;-43
2023/09/24 06:58:07;;;;;;;2.37;2.00;;;17.90;14.30;;;;;;6213840;23;20388;-43
2023/09/24 07:00:33;;;;;;;2.03;1.50;;;18.10;5.20;;;;;;6213832;23;20609;-43
2023/09/24 07:02:58;;;;;;;3.10;1.70;;;18.20;1.00;;;;;;6214356;23;20138;-43
2023/09/24 07:05:24;;;;;;;3.50;1.60;;;18.40;1.00;;;;;;6214966;23;20317;-42
2023/09/24 07:07:51;;;;;;;1.77;1.60;;;18.60;1.00;;;;;;6216404;23;20222;-43
2023/09/24 07:10:18;;;;;;;2.47;1.60;;;18.80;1.00;;;;;;6215965;23;20424;-43
2023/09/24 07:12:45;;;;;;;1.73;1.50;;;19.00;1.00;;;;;;6216138;23;20357;-43
2023/09/24 07:15:11;;;;;;;2.40;1.73;;;19.20;1.00;;;;;;6216487;23;20362;-43
2023/09/24 07:17:37;;;;;;;2.60;1.63;;;19.50;1.00;;;;;;6190125;23;20373;-43
2023/09/24 07:20:05;;;;;;;7.23;2.30;;;19.90;1.00;;;;;;6216933;23;20487;-43
2023/09/24 07:22:31;;;;;;;2.27;1.80;;;20.60;1.00;;;;;;6190214;23;20420;-44
2023/09/24 07:24:57;;;;;;;3.20;2.10;;;21.30;1.00;;;;;;6190165;23;20661;-44
2023/09/24 07:27:24;;;;;;;1.90;1.50;;;22.10;1.00;;;;;;6215570;23;20415;-44
2023/09/24 07:29:50;;;;;;;3.90;2.93;;;22.90;1.00;;;;;;6215183;23;20427;-44
2023/09/24 07:32:16;;;;;;;5.00;1.80;;;23.60;1.00;;;;;;6189640;23;20393;-46
2023/09/24 07:34:46;;;;;;;3.00;1.80;;;24.10;1.00;;;;;;6216004;23;20134;-44
2023/09/24 07:37:12;;;;;;;2.17;1.93;;;24.70;1.00;;;;;;6215893;23;20654;-44
2023/09/24 07:39:38;;;;;;;3.17;2.10;;;25.20;1.00;;;;;;6189574;23;20384;-45
2023/09/24 07:42:04;;;;;;;3.00;1.67;;;25.60;1.00;;;;;;6216832;23;20785;-45
2023/09/24 07:44:31;;;;;;;2.57;2.10;;;26.00;1.00;;;;;;6216533;23;20136;-45
2023/09/24 07:46:57;;;;;;;2.60;2.20;;;26.60;1.00;;;;;;6215211;23;20425;-44
2023/09/24 07:49:23;;;;;;;2.47;1.87;;;27.10;1.00;;;;;;6188342;23;20428;-44
2023/09/24 07:51:49;;;;;;;2.63;1.90;;;27.50;1.00;;;;;;6187691;23;20158;-45
2023/09/24 07:54:17;;;;;;;3.50;1.87;;;28.00;1.00;;;;;;6214934;23;20379;-44
2023/09/24 07:56:43;;;;;;;4.50;2.40;;;28.40;1.00;;;;;;6163240;23;20385;-45
2023/09/24 07:59:12;;;;;;;3.17;1.77;;;28.70;1.00;;;;;;6214556;23;20415;-44
2023/09/24 08:01:38;;;;;;;2.53;1.97;;;29.30;1.00;;;;;;6212961;23;20720;-45
2023/09/24 08:04:05;;;;;;;3.67;1.80;;;29.90;1.00;;;;;;6162458;23;20931;-45
2023/09/24 08:06:30;;;;;;;2.30;1.60;;;30.30;1.00;;;;;;6214459;23;20389;-44
2023/09/24 08:08:56;;;;;;;4.80;1.63;;;30.70;1.00;;;;;;6213212;23;20507;-44
2023/09/24 08:11:23;;;;;;;4.73;2.00;;;31.20;1.00;;;;;;6187213;23;20146;-46
2023/09/24 08:13:49;;;;;;;3.67;1.90;;;31.50;1.00;;;;;;6213268;23;20377;-45
2023/09/24 08:16:15;;;;;;;3.30;2.13;;;31.70;1.00;;;;;;6215007;23;20356;-45
2023/09/24 08:18:41;;;;;;;5.07;1.97;;;32.20;1.00;;;;;;6213295;23;20875;-46
2023/09/24 08:21:07;;;;;;;5.37;2.13;;;32.70;1.00;;;;;;6214970;23;20154;-46
2023/09/24 08:23:33;;;;;;;5.60;1.90;;;33.20;1.00;;;;;;6214365;23;20141;-46
2023/09/24 08:26:00;;;;;;;4.90;2.37;;;33.60;1.00;;;;;;6214551;23;20369;-46
2023/09/24 08:28:25;;;;;;;2.93;1.43;;;33.70;1.00;;;;;;6215147;23;20392;-46
2023/09/24 08:30:51;;;;;;;6.00;2.40;;;34.10;1.00;;;;;;6214099;23;20504;-47
2023/09/24 08:33:17;;;;;;;5.30;2.00;;;34.40;1.00;;;;;;6214283;23;20146;-47
2023/09/24 08:35:43;;;;;;;5.20;1.93;;;34.90;1.00;;;;;;6212179;23;20518;-47
2023/09/24 08:38:09;;;;;;;5.10;2.27;;;35.10;1.00;;;;;;6210034;23;20429;-47
2023/09/24 08:40:35;;;;;;;7.83;2.43;;;35.30;1.00;;;;;;6211335;23;20412;-40
2023/09/24 08:43:13;;;;;;;4.80;2.30;;;35.40;1.00;;;;;;6184662;23;20417;-42
2023/09/24 08:45:38;;;;;;;3.77;2.33;;;34.40;1.00;;;;;;6187425;23;20355;-41
2023/09/24 08:48:07;;;;;;;3.73;2.40;;;32.80;1.00;;;;;;6186976;23;20367;-39
2023/09/24 08:50:43;;;;;;;10.00;1.97;;;31.50;1.00;;;;;;6213882;23;20161;-40
2023/09/24 08:53:15;;;;;;;5.47;2.03;;;30.50;1.00;;;;;;6187620;23;20359;-37
2023/09/24 08:55:43;;;;;;;4.83;2.27;;;29.80;1.00;;;;;;6216182;23;20401;-39
2023/09/24 08:58:09;;;;;;;3.83;1.83;;;29.30;1.00;;;;;;6215554;23;20384;-38
2023/09/24 09:00:36;;;;;;;3.97;1.83;;;28.90;1.00;;;;;;6216826;23;20384;-37
2023/09/24 09:03:03;;;;;;;5.93;1.90;;;28.70;1.00;;;;;;6214909;23;20373;-40
2023/09/24 09:05:45;;;;;;;3.67;2.00;;;28.50;1.00;;;;;;6189079;23;20516;-38
2023/09/24 09:08:11;;;;;;;3.30;2.00;;;28.50;1.00;;;;;;6218345;23;20463;-39
2023/09/24 09:10:37;;;;;;;6.90;2.40;;;28.70;1.00;;;;;;6216091;23;20476;-38
2023/09/24 09:13:15;;;;;;;5.83;2.00;;;28.80;1.00;;;;;;6188266;23;20406;-39
2023/09/24 09:15:43;;;;;;;3.10;1.73;;;28.80;1.00;;;;;;6214362;23;20621;-39
2023/09/24 09:18:26;;;;;;;4.63;1.43;;;28.80;1.00;;;;;;6215355;23;20366;-38
2023/09/24 09:20:59;;;;;;;3.07;1.73;;;29.00;1.00;;;;;;6215468;23;20370;-39
2023/09/24 09:23:43;;;;;;;4.63;2.30;;;28.80;1.00;;;;;;6213671;23;20476;-39
2023/09/24 09:26:09;;;;;;;3.10;2.10;;;28.70;1.00;;;;;;6213298;23;20924;-39
2023/09/24 09:28:35;;;;;;;3.50;1.90;;;28.70;1.00;;;;;;6216184;23;20380;-40
2023/09/24 09:31:11;;;;;;;2.80;1.90;;;29.00;1.00;;;;;;6189856;23;20425;-38
2023/09/24 09:33:40;;;;;;;4.10;1.90;;;29.50;1.00;;;;;;6214669;23;20746;-38
2023/09/24 09:36:32;;;;;;;2.80;2.23;;;29.90;1.00;;;;;;6215945;23;20340;-39
2023/09/24 09:38:58;;;;;;;2.57;1.73;;;30.20;1.00;;;;;;6213285;23;20351;-39
2023/09/24 09:41:24;;;;;;;3.50;1.90;;;30.50;1.00;;;;;;6188967;23;20729;-38
2023/09/24 09:43:52;;;;;;;3.80;2.10;;;30.80;1.00;;;;;;6216039;23;20396;-40
2023/09/24 09:46:23;;;;;;;3.80;1.97;;;31.10;1.00;;;;;;6190233;23;20982;-44
2023/09/24 09:49:12;;;;;;;3.30;1.70;;;31.30;1.00;;;;;;6215833;23;20664;-39
2023/09/24 09:51:48;;;;;;;3.20;1.93;;;31.50;1.00;;;;;;6214818;23;20379;-40
2023/09/24 09:54:15;;;;;;;2.27;1.60;;;32.00;1.00;;;;;;6214887;23;20342;-40
2023/09/24 09:56:42;;;;;;;6.30;2.60;;;32.30;1.00;;;;;;6216491;23;20359;-40
2023/09/24 09:59:08;;;;;;;10.90;2.10;;;32.50;1.00;;;;;;6187162;23;20344;-37
2023/09/24 10:01:35;;;;;;;5.80;2.27;;;32.90;1.00;;;;;;6213208;23;20335;-37
2023/09/24 10:04:03;;;;;;;4.20;2.10;;;33.20;1.00;;;;;;6212832;23;20427;-41
2023/09/24 10:06:34;;;;;;;6.53;2.13;;;33.30;1.00;;;;;;6213469;23;20370;-41
2023/09/24 10:09:01;;;;;;;3.43;2.27;;;33.50;1.00;;;;;;6213236;23;20774;-41
2023/09/24 10:11:32;;;;;;;5.03;2.07;;;33.60;1.00;;;;;;6214235;23;20355;-39
2023/09/24 10:14:04;;;;;;;5.40;2.23;;;33.70;1.00;;;;;;6215983;23;20436;-40
2023/09/24 10:16:51;;;;;;;4.60;2.53;;;34.00;1.00;;;;;;6214675;23;20675;-41
2023/09/24 10:19:16;;;;;;;6.13;1.60;;;34.00;1.00;;;;;;6213304;23;20381;-38
2023/09/24 10:21:44;;;;;;;3.30;1.83;;;34.40;1.00;;;;;;6215944;23;20795;-37
2023/09/24 10:24:13;;;;;;;3.97;1.90;;;34.60;1.00;;;;;;6214175;23;20502;-43
2023/09/24 10:27:08;;;;;;;3.43;2.10;;;34.90;1.00;;;;;;6213366;23;20373;-40
2023/09/24 10:29:49;;;;;;;3.90;2.27;;;35.20;1.00;;;;;;6180746;23;20491;-40
2023/09/24 10:32:21;;;;;;;2.97;1.87;;;35.00;1.00;;;;;;6210918;23;20401;-40
2023/09/24 10:37:34;;;;;;;5.90;2.07;;;35.20;1.00;;;;;;6211938;23;20397;-41
2023/09/24 10:40:00;;;;;;;3.33;1.90;;;35.20;1.00;;;;;;6212769;23;20392;-39
2023/09/24 10:42:26;;;;;;;1.80;1.63;;;35.40;1.00;;;;;;6214156;23;20382;-37
2023/09/24 10:45:07;;;;;;;5.77;1.63;;;35.60;1.00;;;;;;6189270;23;20400;-38
2023/09/24 10:47:38;;;;;;;3.50;2.30;;;35.60;1.00;;;;;;6214690;23;20380;-39
2023/09/24 10:50:09;;;;;;;2.40;2.20;;;35.90;1.00;;;;;;6214425;23;20453;-39
2023/09/24 10:52:50;;;;;;;4.17;3.77;;;35.90;1.00;;;;;;6215056;23;20376;-39
2023/09/24 10:55:18;;;;;;;5.03;4.63;;;36.00;1.00;;;;;;6213223;23;20424;-39
2023/09/24 10:57:53;;;;;;;3.83;3.20;;;35.90;1.00;;;;;;6186576;23;20379;-37
2023/09/24 11:00:20;;;;;;;2.30;2.10;;;35.90;1.00;;;;;;6186783;23;20400;-39
2023/09/24 11:03:03;;;;;;;2.53;2.10;;;35.40;1.00;;;;;;6209902;23;20387;-39
2023/09/24 11:05:33;;;;;;;3.67;2.63;;;34.90;1.00;;;;;;6182737;23;20472;-41
2023/09/24 11:07:59;;;;;;;4.97;4.57;;;34.60;1.00;;;;;;6183401;23;20466;-41
2023/09/24 11:10:26;;;;;;;4.77;3.63;;;34.50;1.00;;;;;;6210361;23;20443;-42
2023/09/24 11:12:57;;;;;;;3.90;2.60;;;34.70;1.00;;;;;;6162932;23;20236;-41
2023/09/24 11:15:24;;;;;;;5.07;3.10;;;35.10;1.00;;;;;;6213597;23;20358;-40
2023/09/24 11:17:51;;;;;;;3.50;2.63;;;35.40;1.00;;;;;;6188025;23;20361;-40
2023/09/24 11:20:20;;;;;;;4.33;3.37;;;35.70;1.00;;;;;;6212326;23;20383;-42
2023/09/24 11:22:56;;;;;;;5.27;2.80;;;36.10;1.00;;;;;;6211962;23;20391;-39
2023/09/24 11:25:22;;;;;;;4.50;2.40;;;36.40;1.00;;;;;;6212822;23;20385;-38
2023/09/24 11:27:55;;;;;;;3.30;2.30;;;36.80;1.00;;;;;;6212516;23;20461;-40
2023/09/24 11:30:24;;;;;;;4.80;2.70;;;37.30;1.00;;;;;;6213220;23;20420;-38
2023/09/24 11:32:51;;;;;;;3.90;2.87;;;37.40;1.00;;;;;;6213096;23;20773;-39
2023/09/24 11:35:18;;;;;;;4.33;2.37;;;37.50;1.00;;;;;;6211144;23;20458;-40
2023/09/24 11:37:59;;;;;;;2.40;2.10;;;37.70;1.00;;;;;;6213599;23;20450;-40
2023/09/24 11:40:26;;;;;;;3.60;2.50;;;37.70;1.00;;;;;;6210612;23;20475;-38
2023/09/24 11:43:14;;;;;;;2.03;1.83;;;37.90;1.00;;;;;;6212335;23;20385;-39
2023/09/24 11:45:48;;;;;;;2.00;1.70;;;37.90;1.00;;;;;;6214500;23;20716;-41
2023/09/24 11:48:17;;;;;;;7.30;2.60;;;37.60;1.00;;;;;;6214644;23;20361;-36
2023/09/24 11:50:46;;;;;;;2.60;1.90;;;37.40;1.00;;;;;;6214631;23;20439;-37
2023/09/24 11:53:13;;;;;;;5.13;2.40;;;37.50;1.00;;;;;;6215088;23;20381;-36
2023/09/24 11:55:40;;;;;;;2.83;1.90;;;37.40;1.00;;;;;;6187408;23;20949;-38
2023/09/24 11:58:07;;;;;;;2.10;1.90;;;37.40;1.00;;;;;;6216486;23;20761;-36
2023/09/24 12:00:36;;;;;;;2.53;1.90;;;37.50;1.00;;;;;;6215111;23;20637;-38
2023/09/24 12:03:03;;;;;;;3.30;2.53;;;37.60;1.00;;;;;;6215076;23;20680;-38
2023/09/24 12:05:30;;;;;;;3.87;1.70;;;36.90;1.00;;;;;;6188614;23;20772;-36
2023/09/24 12:07:56;;;;;;;3.40;1.80;;;36.70;1.00;;;;;;6215346;23;20466;-35
2023/09/24 12:10:22;;;;;;;2.10;1.70;;;36.20;1.00;;;;;;6215041;23;20359;-38
2023/09/24 12:12:49;;;;;;;3.90;2.10;;;35.20;1.00;;;;;;6217546;23;20157;-40
2023/09/24 12:15:16;;;;;;;3.63;1.77;;;34.40;1.00;;;;;;6215732;23;20420;-42
2023/09/24 12:17:42;;;;;;;2.53;1.80;;;34.00;1.00;;;;;;6215941;23;20364;-42
2023/09/24 12:20:11;;;;;;;2.63;1.90;;;34.30;1.00;;;;;;6216245;23;20460;-40
2023/09/24 12:22:38;;;;;;;2.93;1.80;;;34.90;1.00;;;;;;6217712;23;20551;-40
2023/09/24 12:25:04;;;;;;;2.60;2.00;;;35.50;1.00;;;;;;6216320;23;20373;-39
2023/09/24 12:27:30;;;;;;;3.40;1.93;;;36.10;1.00;;;;;;6215804;23;20361;-38
2023/09/24 12:29:55;;;;;;;2.77;2.00;;;36.40;1.00;;;;;;6213055;23;20438;-39
2023/09/24 12:32:23;;;;;;;4.30;2.40;;;36.90;1.00;;;;;;6213460;23;20161;-41
2023/09/24 12:34:49;;;;;;;7.23;2.00;;;37.30;1.00;;;;;;6214748;23;20154;-39
2023/09/24 12:37:15;;;;;;;2.10;1.83;;;37.60;1.00;;;;;;6213353;23;20377;-41
2023/09/24 12:39:41;;;;;;;3.57;2.07;;;37.90;1.00;;;;;;6213500;23;20431;-42
2023/09/24 12:42:07;;;;;;;3.57;1.80;;;38.00;1.00;;;;;;6213888;23;20397;-39
2023/09/24 12:44:33;;;;;;;2.30;1.77;;;38.20;1.00;;;;;;6212921;23;20367;-38
2023/09/24 12:46:59;;;;;;;5.27;2.10;;;38.20;1.00;;;;;;6213117;23;20160;-40
2023/09/24 12:49:25;;;;;;;5.03;2.20;;;38.30;1.00;;;;;;6212607;23;20180;-37
2023/09/24 12:51:51;;;;;;;3.23;2.30;;;38.40;1.00;;;;;;6214967;23;20423;-38
2023/09/24 12:54:16;;;;;;;4.67;2.00;;;38.20;1.00;;;;;;6214962;23;20726;-41
2023/09/24 12:56:42;;;;;;;3.00;1.70;;;38.20;1.00;;;;;;6214542;23;20381;-39
2023/09/24 12:59:08;;;;;;;3.03;2.20;;;38.20;1.00;;;;;;6212321;23;20165;-37
2023/09/24 13:01:34;;;;;;;2.47;2.27;;;38.40;1.00;;;;;;6212350;23;20426;-40
2023/09/24 13:04:00;;;;;;;3.60;1.80;;;38.60;1.00;;;;;;6214812;23;20557;-38
2023/09/24 13:06:26;;;;;;;2.90;2.60;;;38.70;1.00;;;;;;6185952;23;20381;-39
2023/09/24 13:08:53;;;;;;;3.93;2.30;;;38.70;1.00;;;;;;6187023;23;20392;-39
2023/09/24 13:11:19;;;;;;;2.77;1.93;;;38.90;1.00;;;;;;6213934;23;20150;-39